Time;durP1;ratioP1;P1;durP2;ratioP2;P2;SDS_P1;SDS_P2;PMS_P1;PMS_P2;Temp;Humidity;BMP_temperature;BMP_pressure;BME280_temperature;BME280_humidity;BME280_pressure;Samples;Min_cycle;Max_cycle;Signal;HPM_P1;HPM_P2
2020/12/22 00:01:40;;;;;;;672.63;620.77;;;;;;;;;;5028148;28;20187;-65
2020/12/22 00:04:07;;;;;;;704.10;649.73;;;;;;;;;;5033006;28;20318;-65
2020/12/22 00:06:33;;;;;;;767.90;700.63;;;;;;;;;;5030188;28;20620;-65
2020/12/22 00:09:00;;;;;;;739.30;679.40;;;;;;;;;;5028078;28;20192;-65
2020/12/22 00:11:27;;;;;;;869.00;792.87;;;;;;;;;;5030165;28;20213;-64
2020/12/22 00:13:54;;;;;;;775.87;710.20;;;;;;;;;;5030418;28;20324;-63
2020/12/22 00:16:21;;;;;;;734.57;671.87;;;;;;;;;;5031591;28;21294;-65
2020/12/22 00:18:48;;;;;;;764.60;699.67;;;;;;;;;;5034266;28;20179;-63
2020/12/22 00:21:19;;;;;;;744.80;685.93;;;;;;;;;;5032705;28;20186;-63
2020/12/22 00:23:46;;;;;;;706.87;649.87;;;;;;;;;;5030074;28;20215;-65
2020/12/22 00:26:16;;;;;;;721.17;661.07;;;;;;;;;;5025169;28;20201;-64
2020/12/22 00:28:43;;;;;;;728.83;672.50;;;;;;;;;;5035090;28;20192;-62
2020/12/22 00:31:10;;;;;;;748.40;684.97;;;;;;;;;;5034102;28;20270;-61
2020/12/22 00:33:37;;;;;;;658.33;609.40;;;;;;;;;;5029431;28;20209;-65
2020/12/22 00:36:07;;;;;;;808.00;739.50;;;;;;;;;;5031129;28;20554;-60
2020/12/22 00:38:33;;;;;;;716.50;659.53;;;;;;;;;;5032592;28;20199;-65
2020/12/22 00:41:00;;;;;;;745.30;687.80;;;;;;;;;;5033678;28;20283;-62
2020/12/22 00:43:27;;;;;;;822.70;752.10;;;;;;;;;;5034189;28;20191;-60
2020/12/22 00:45:54;;;;;;;704.70;647.70;;;;;;;;;;5033599;28;20274;-62
2020/12/22 00:48:21;;;;;;;736.73;680.57;;;;;;;;;;5035782;28;20249;-58
2020/12/22 00:50:48;;;;;;;871.73;786.90;;;;;;;;;;5034704;28;20286;-61
2020/12/22 00:53:14;;;;;;;811.07;738.17;;;;;;;;;;5035962;28;20665;-61
2020/12/22 00:55:42;;;;;;;805.90;740.57;;;;;;;;;;5034926;28;20191;-61
2020/12/22 00:58:09;;;;;;;803.63;739.10;;;;;;;;;;5035477;28;20233;-63
2020/12/22 13:54:10;;;;;;;733.73;672.90;;;;;;;;;;5133226;27;20603;-62
2020/12/22 13:56:37;;;;;;;801.57;728.97;;;;;;;;;;5116849;27;20216;-64
2020/12/22 13:59:04;;;;;;;772.30;702.37;;;;;;;;;;5111083;27;20186;-63
2020/12/22 14:01:31;;;;;;;820.13;744.77;;;;;;;;;;5115896;28;20694;-63
2020/12/22 14:03:58;;;;;;;943.83;851.13;;;;;;;;;;5112618;27;20285;-64
2020/12/22 14:06:26;;;;;;;816.93;742.63;;;;;;;;;;5117099;27;20188;-63
2020/12/22 14:08:56;;;;;;;932.50;845.43;;;;;;;;;;5119067;27;20533;-63
2020/12/22 14:11:23;;;;;;;903.73;814.60;;;;;;;;;;5120209;27;20189;-62
2020/12/22 14:13:51;;;;;;;924.60;838.87;;;;;;;;;;5123396;27;20217;-64
2020/12/22 14:16:17;;;;;;;759.17;698.57;;;;;;;;;;5122156;27;20185;-64
2020/12/22 14:18:45;;;;;;;1028.90;931.90;;;;;;;;;;5116365;28;20221;-62
2020/12/22 14:21:15;;;;;;;794.70;730.93;;;;;;;;;;5121272;27;20181;-63
2020/12/22 14:23:42;;;;;;;901.87;823.23;;;;;;;;;;5115233;28;20178;-64
2020/12/22 14:26:09;;;;;;;988.53;898.70;;;;;;;;;;5120617;27;20177;-64
2020/12/22 14:28:36;;;;;;;978.77;884.50;;;;;;;;;;5124018;27;20179;-63
2020/12/22 14:31:03;;;;;;;913.93;832.47;;;;;;;;;;5117963;28;20169;-64
2020/12/22 14:33:29;;;;;;;922.40;839.97;;;;;;;;;;5116120;27;20304;-64
2020/12/22 14:35:56;;;;;;;959.53;874.97;;;;;;;;;;5117147;28;20655;-62
2020/12/22 14:38:23;;;;;;;966.97;872.07;;;;;;;;;;5114233;27;20177;-62
2020/12/22 14:40:50;;;;;;;889.60;813.70;;;;;;;;;;5117087;28;20182;-64
2020/12/22 14:43:17;;;;;;;1044.23;938.50;;;;;;;;;;5115931;27;20191;-62
2020/12/22 14:45:44;;;;;;;962.13;878.13;;;;;;;;;;5117447;28;20178;-65
2020/12/22 14:48:11;;;;;;;1021.70;921.40;;;;;;;;;;5115674;27;20182;-63
2020/12/22 14:50:38;;;;;;;1040.40;943.17;;;;;;;;;;5117562;27;20583;-63
2020/12/22 14:53:04;;;;;;;897.57;806.87;;;;;;;;;;5111958;27;20266;-62
2020/12/22 14:55:31;;;;;;;1018.63;919.23;;;;;;;;;;5115399;27;20285;-63
2020/12/22 14:57:58;;;;;;;1023.87;925.87;;;;;;;;;;5114576;27;20247;-61
2020/12/22 15:00:25;;;;;;;1001.37;899.87;;;;;;;;;;5118195;27;20170;-62
2020/12/22 15:02:51;;;;;;;982.50;890.97;;;;;;;;;;5115246;27;20188;-61
2020/12/22 15:05:19;;;;;;;921.40;844.53;;;;;;;;;;5098065;27;20391;-62
2020/12/22 15:07:47;;;;;;;943.80;859.07;;;;;;;;;;5101796;27;20636;-63
2020/12/22 15:10:14;;;;;;;1014.90;921.67;;;;;;;;;;5098437;28;20250;-62
2020/12/22 15:12:41;;;;;;;1042.57;939.67;;;;;;;;;;5102577;28;20279;-64
2020/12/22 15:15:08;;;;;;;1052.67;948.83;;;;;;;;;;5103708;27;20193;-62
2020/12/22 15:17:36;;;;;;;1084.10;973.83;;;;;;;;;;5097361;28;20760;-62
2020/12/22 15:20:05;;;;;;;1040.40;940.17;;;;;;;;;;5106035;27;20627;-64
2020/12/22 15:22:33;;;;;;;985.10;887.13;;;;;;;;;;5099762;27;20177;-63
2020/12/22 15:25:00;;;;;;;966.27;872.00;;;;;;;;;;5099135;28;20256;-65
2020/12/22 15:27:28;;;;;;;986.77;893.80;;;;;;;;;;5100612;28;20557;-62
2020/12/22 15:29:55;;;;;;;925.80;837.27;;;;;;;;;;5101643;27;20277;-63
2020/12/22 15:32:21;;;;;;;963.23;861.80;;;;;;;;;;5092856;28;20285;-62
2020/12/22 15:34:48;;;;;;;1005.20;907.77;;;;;;;;;;5101534;28;20213;-63
2020/12/22 15:37:14;;;;;;;968.37;878.43;;;;;;;;;;5106195;27;20178;-64
2020/12/22 15:39:41;;;;;;;1221.67;997.60;;;;;;;;;;5103051;27;20769;-62
2020/12/22 15:42:09;;;;;;;1061.33;954.23;;;;;;;;;;5101951;27;20182;-62
2020/12/22 15:44:36;;;;;;;1019.87;916.60;;;;;;;;;;5100482;28;20952;-62
2020/12/22 15:47:03;;;;;;;996.17;899.80;;;;;;;;;;5102450;27;20181;-63
2020/12/22 15:49:30;;;;;;;1043.93;940.30;;;;;;;;;;5099049;28;20271;-62
2020/12/22 15:51:57;;;;;;;1042.57;935.20;;;;;;;;;;5102068;28;20202;-62
2020/12/22 15:54:24;;;;;;;1082.83;975.73;;;;;;;;;;5082950;28;20187;-64
2020/12/22 15:56:51;;;;;;;997.47;900.87;;;;;;;;;;5079227;28;20319;-63
2020/12/22 15:59:18;;;;;;;1048.30;944.23;;;;;;;;;;5080839;28;20228;-62
2020/12/22 16:01:45;;;;;;;956.53;870.67;;;;;;;;;;5080112;28;20187;-63
2020/12/22 16:04:14;;;;;;;1029.30;929.00;;;;;;;;;;5081000;28;20185;-63
2020/12/22 16:06:43;;;;;;;1006.67;914.23;;;;;;;;;;5076356;28;20641;-65
2020/12/22 16:09:15;;;;;;;1003.07;916.67;;;;;;;;;;5085873;28;20182;-63
2020/12/22 16:11:43;;;;;;;979.57;882.83;;;;;;;;;;5079357;28;20182;-63
2020/12/22 16:14:10;;;;;;;1089.43;972.60;;;;;;;;;;5078406;28;20221;-63
2020/12/22 16:16:36;;;;;;;967.87;875.17;;;;;;;;;;5066498;28;20174;-61
2020/12/22 16:19:04;;;;;;;1058.93;931.60;;;;;;;;;;5074629;28;20650;-64
2020/12/22 16:21:31;;;;;;;1020.63;921.63;;;;;;;;;;5070696;28;20187;-64
2020/12/22 16:23:57;;;;;;;986.33;886.73;;;;;;;;;;5070040;28;20680;-62
2020/12/22 16:26:24;;;;;;;1059.47;959.03;;;;;;;;;;5074146;28;20174;-64
2020/12/22 16:28:51;;;;;;;1030.77;930.83;;;;;;;;;;5070377;28;20840;-63
2020/12/22 16:31:18;;;;;;;1147.97;940.03;;;;;;;;;;5075631;28;20171;-62
2020/12/22 16:33:45;;;;;;;985.57;882.40;;;;;;;;;;5073166;28;20588;-64
2020/12/22 16:36:12;;;;;;;1026.23;927.07;;;;;;;;;;5077186;28;20189;-63
2020/12/22 16:38:39;;;;;;;1038.17;935.00;;;;;;;;;;5077157;28;20187;-61
2020/12/22 16:41:06;;;;;;;998.33;900.07;;;;;;;;;;5074452;28;20178;-61
2020/12/22 16:43:32;;;;;;;1029.67;921.40;;;;;;;;;;5071596;28;20185;-63
2020/12/22 16:45:59;;;;;;;1030.20;918.70;;;;;;;;;;5076164;28;20191;-62
2020/12/22 16:48:26;;;;;;;983.63;888.77;;;;;;;;;;5074681;28;20180;-61
2020/12/22 16:50:52;;;;;;;1007.33;901.33;;;;;;;;;;5078387;28;20178;-63
2020/12/22 16:53:19;;;;;;;977.33;885.97;;;;;;;;;;5087900;28;20233;-63
2020/12/22 16:55:47;;;;;;;923.33;838.23;;;;;;;;;;5095608;28;20609;-62
2020/12/22 16:58:13;;;;;;;1109.30;992.90;;;;;;;;;;5097051;27;20260;-63
2020/12/22 17:00:40;;;;;;;1015.53;913.37;;;;;;;;;;5095196;28;20258;-62
2020/12/22 17:03:06;;;;;;;1002.93;902.20;;;;;;;;;;5096564;28;20573;-61
2020/12/22 17:05:33;;;;;;;1039.27;930.30;;;;;;;;;;5098416;28;20182;-61
2020/12/22 17:08:00;;;;;;;986.90;885.13;;;;;;;;;;5099399;27;20185;-63
2020/12/22 17:10:27;;;;;;;1062.50;921.53;;;;;;;;;;5092923;28;20175;-61
2020/12/22 17:12:53;;;;;;;1136.33;944.10;;;;;;;;;;5075309;28;20748;-62
2020/12/22 17:15:20;;;;;;;1034.80;931.73;;;;;;;;;;5092312;28;20190;-63
2020/12/22 17:17:47;;;;;;;1121.37;998.17;;;;;;;;;;5096096;28;20182;-62
2020/12/22 17:20:13;;;;;;;1083.10;968.57;;;;;;;;;;5096106;28;20176;-61
2020/12/22 17:22:41;;;;;;;1025.17;928.93;;;;;;;;;;5092565;28;20170;-62
2020/12/22 17:25:07;;;;;;;1009.13;907.57;;;;;;;;;;5101544;28;20190;-62
2020/12/22 17:27:37;;;;;;;1107.53;995.17;;;;;;;;;;5104732;28;20657;-63
2020/12/22 17:30:04;;;;;;;1071.87;958.87;;;;;;;;;;5097638;28;20178;-62
2020/12/22 17:32:31;;;;;;;1089.27;978.50;;;;;;;;;;5093949;28;20240;-61
2020/12/22 17:34:57;;;;;;;1088.37;977.20;;;;;;;;;;5091796;27;20181;-61
2020/12/22 17:37:24;;;;;;;1068.37;954.43;;;;;;;;;;5095429;28;21841;-63
2020/12/22 17:39:53;;;;;;;1071.73;961.57;;;;;;;;;;5095282;28;20185;-60
2020/12/22 17:42:20;;;;;;;1070.23;966.37;;;;;;;;;;5095764;28;20186;-63
2020/12/22 17:44:47;;;;;;;1095.83;978.17;;;;;;;;;;5095803;28;20214;-59
2020/12/22 17:47:13;;;;;;;1041.07;923.37;;;;;;;;;;5094722;28;20174;-61
2020/12/22 17:49:40;;;;;;;854.10;774.47;;;;;;;;;;5093545;28;20178;-61
2020/12/22 17:52:09;;;;;;;850.20;765.93;;;;;;;;;;5090457;28;20952;-63
2020/12/22 17:54:37;;;;;;;900.20;809.27;;;;;;;;;;5092769;28;20620;-61
2020/12/22 17:57:04;;;;;;;887.70;808.40;;;;;;;;;;5089154;28;20292;-61
2020/12/22 17:59:33;;;;;;;868.70;792.13;;;;;;;;;;5097389;28;20185;-64
2020/12/22 18:02:00;;;;;;;917.30;819.87;;;;;;;;;;5097185;28;20182;-62
2020/12/22 18:04:27;;;;;;;864.27;779.13;;;;;;;;;;5097286;28;20508;-62
2020/12/22 18:06:53;;;;;;;886.33;796.47;;;;;;;;;;5110456;28;20180;-62
2020/12/22 18:09:20;;;;;;;794.63;724.47;;;;;;;;;;5119847;28;20192;-63
2020/12/22 18:11:46;;;;;;;924.07;830.63;;;;;;;;;;5118000;28;20173;-61
2020/12/22 18:14:13;;;;;;;1009.13;899.13;;;;;;;;;;5097749;28;20185;-63
2020/12/22 18:16:39;;;;;;;920.00;829.37;;;;;;;;;;5096240;28;20188;-62
2020/12/22 18:19:08;;;;;;;968.67;863.33;;;;;;;;;;5096425;28;20193;-62
2020/12/22 18:21:34;;;;;;;845.83;762.20;;;;;;;;;;5099104;28;20231;-64
2020/12/22 18:24:01;;;;;;;895.33;805.67;;;;;;;;;;5097867;28;20184;-63
2020/12/22 18:26:27;;;;;;;954.20;854.97;;;;;;;;;;5096066;28;20218;-63
2020/12/22 18:28:54;;;;;;;827.17;750.30;;;;;;;;;;5098858;28;20885;-63
2020/12/22 18:31:21;;;;;;;935.73;835.10;;;;;;;;;;5106782;28;20185;-62
2020/12/22 18:33:47;;;;;;;971.97;869.27;;;;;;;;;;5096218;28;20221;-62
2020/12/22 18:36:14;;;;;;;1145.03;957.40;;;;;;;;;;5079989;28;20183;-62
2020/12/22 18:38:40;;;;;;;1004.23;894.13;;;;;;;;;;5098971;28;20186;-62
2020/12/22 18:41:07;;;;;;;1102.17;909.07;;;;;;;;;;5102364;28;20269;-63
2020/12/22 18:43:33;;;;;;;1026.40;879.80;;;;;;;;;;5103030;28;20186;-62
2020/12/22 18:46:00;;;;;;;1195.60;976.87;;;;;;;;;;5101837;27;20223;-63
2020/12/22 18:48:26;;;;;;;1034.47;926.23;;;;;;;;;;5101951;28;20403;-62
2020/12/22 18:50:53;;;;;;;1128.97;960.10;;;;;;;;;;5101862;28;20255;-63
2020/12/22 18:53:20;;;;;;;1030.23;915.83;;;;;;;;;;5099173;28;20315;-63
2020/12/22 18:55:46;;;;;;;932.20;831.70;;;;;;;;;;5095619;28;20184;-61
2020/12/22 18:58:13;;;;;;;874.47;791.73;;;;;;;;;;5102353;28;20173;-61
2020/12/22 19:00:39;;;;;;;937.40;837.27;;;;;;;;;;5102288;28;20183;-60
2020/12/22 19:03:06;;;;;;;1067.77;907.50;;;;;;;;;;5098770;28;20182;-62
2020/12/22 19:05:33;;;;;;;910.70;813.53;;;;;;;;;;5099129;28;20182;-62
2020/12/22 19:07:59;;;;;;;927.53;836.27;;;;;;;;;;5101661;28;20192;-62
2020/12/22 19:10:26;;;;;;;983.20;885.60;;;;;;;;;;5099775;28;20171;-62
2020/12/22 19:12:52;;;;;;;865.50;783.10;;;;;;;;;;5110366;27;20587;-63
2020/12/22 19:15:19;;;;;;;896.90;806.33;;;;;;;;;;5101030;28;20605;-62
2020/12/22 19:17:45;;;;;;;1054.77;923.10;;;;;;;;;;5101199;28;20281;-61
2020/12/22 19:20:12;;;;;;;1071.20;946.97;;;;;;;;;;5102434;28;20589;-62
2020/12/22 19:22:39;;;;;;;973.00;872.73;;;;;;;;;;5096519;28;20189;-61
2020/12/22 19:25:06;;;;;;;878.33;799.47;;;;;;;;;;5102286;28;20204;-62
2020/12/22 19:27:34;;;;;;;1049.97;938.93;;;;;;;;;;5101727;28;20184;-63
2020/12/22 19:30:00;;;;;;;866.50;788.23;;;;;;;;;;5102153;28;20175;-61
2020/12/22 19:32:27;;;;;;;961.37;869.37;;;;;;;;;;5102444;28;20214;-62
2020/12/22 19:34:53;;;;;;;1035.93;919.63;;;;;;;;;;5120610;27;20175;-62
2020/12/22 19:37:20;;;;;;;989.40;882.33;;;;;;;;;;5119575;27;20170;-62
2020/12/22 19:39:47;;;;;;;905.63;819.80;;;;;;;;;;5096190;28;20257;-61
2020/12/22 19:42:13;;;;;;;954.80;856.13;;;;;;;;;;5098013;28;20183;-61
2020/12/22 19:44:40;;;;;;;1009.60;905.33;;;;;;;;;;5101331;28;20179;-61
2020/12/22 19:47:06;;;;;;;995.43;864.93;;;;;;;;;;5100395;28;20217;-60
2020/12/22 19:49:33;;;;;;;918.70;825.13;;;;;;;;;;5101546;28;20179;-61
2020/12/22 19:52:01;;;;;;;947.10;851.73;;;;;;;;;;5100886;28;20741;-60
2020/12/22 19:54:28;;;;;;;1263.53;963.73;;;;;;;;;;5100207;28;20197;-61
2020/12/22 19:56:55;;;;;;;1011.50;911.47;;;;;;;;;;5099573;28;20190;-62
2020/12/22 19:59:22;;;;;;;1092.23;976.20;;;;;;;;;;5101168;28;20171;-60
2020/12/22 20:01:51;;;;;;;1107.40;932.27;;;;;;;;;;5100040;28;20178;-62
2020/12/22 20:04:18;;;;;;;1019.40;914.47;;;;;;;;;;5096896;28;20183;-61
2020/12/22 20:06:45;;;;;;;1105.83;958.47;;;;;;;;;;5099781;28;20683;-61
2020/12/22 20:09:11;;;;;;;971.27;877.27;;;;;;;;;;5102845;27;20292;-62
2020/12/22 20:11:38;;;;;;;947.30;851.67;;;;;;;;;;5098593;28;20691;-62
2020/12/22 20:14:05;;;;;;;1303.57;971.07;;;;;;;;;;5097673;28;20672;-62
2020/12/22 20:16:32;;;;;;;1043.37;928.33;;;;;;;;;;5097997;28;20184;-63
2020/12/22 20:18:59;;;;;;;1052.33;909.60;;;;;;;;;;5096558;28;20181;-61
2020/12/22 20:21:25;;;;;;;1213.73;980.27;;;;;;;;;;5095633;28;20553;-61
2020/12/22 20:23:52;;;;;;;1071.43;952.17;;;;;;;;;;5097942;28;20675;-60
2020/12/22 20:26:19;;;;;;;1045.37;932.93;;;;;;;;;;5098686;28;20181;-61
2020/12/22 20:28:45;;;;;;;1351.77;967.20;;;;;;;;;;5091004;28;20285;-61
2020/12/22 20:31:12;;;;;;;1008.43;906.60;;;;;;;;;;5098398;28;20342;-63
2020/12/22 20:33:42;;;;;;;1168.93;999.90;;;;;;;;;;5094879;28;20214;-60
2020/12/22 20:36:09;;;;;;;1251.37;999.90;;;;;;;;;;5090591;28;20327;-61
2020/12/22 20:38:36;;;;;;;1087.40;974.67;;;;;;;;;;5106697;27;20281;-61
2020/12/22 20:41:09;;;;;;;1154.77;999.90;;;;;;;;;;5104560;27;20181;-61
2020/12/22 20:43:36;;;;;;;1153.67;979.07;;;;;;;;;;5117331;27;20171;-61
2020/12/22 20:46:02;;;;;;;1126.03;998.90;;;;;;;;;;5099627;28;20189;-61
2020/12/22 20:48:30;;;;;;;1036.53;928.00;;;;;;;;;;5099802;28;20575;-61
2020/12/22 20:50:57;;;;;;;993.27;887.00;;;;;;;;;;5099754;28;20441;-60
2020/12/22 20:53:24;;;;;;;982.07;869.47;;;;;;;;;;5098950;28;20233;-61
2020/12/22 20:55:51;;;;;;;1108.80;964.83;;;;;;;;;;5099582;28;20174;-61
2020/12/22 20:58:18;;;;;;;1022.03;912.63;;;;;;;;;;5099226;28;20208;-61
2020/12/22 21:00:45;;;;;;;1011.43;907.57;;;;;;;;;;5099093;28;20184;-62
2020/12/22 21:03:11;;;;;;;1179.93;956.70;;;;;;;;;;5099160;28;20667;-61
2020/12/22 21:05:38;;;;;;;1088.83;930.40;;;;;;;;;;5097708;28;20592;-60
2020/12/22 21:08:08;;;;;;;1029.13;915.67;;;;;;;;;;5094649;28;20201;-62
2020/12/22 21:10:35;;;;;;;904.27;814.50;;;;;;;;;;5095841;28;20804;-62
2020/12/22 21:13:02;;;;;;;944.10;857.10;;;;;;;;;;5096422;28;20249;-63
2020/12/22 21:15:29;;;;;;;837.63;762.27;;;;;;;;;;5095404;27;20272;-61
2020/12/22 21:17:56;;;;;;;869.63;793.57;;;;;;;;;;5096499;28;20212;-62
2020/12/22 21:20:23;;;;;;;871.87;787.63;;;;;;;;;;5098910;28;20648;-62
2020/12/22 21:22:49;;;;;;;787.23;715.10;;;;;;;;;;5086117;28;20186;-62
2020/12/22 21:25:16;;;;;;;800.47;727.17;;;;;;;;;;5095983;28;20201;-61
2020/12/22 21:27:43;;;;;;;778.90;711.80;;;;;;;;;;5082256;28;20177;-61
2020/12/22 21:30:15;;;;;;;868.33;790.33;;;;;;;;;;5097774;28;20634;-61
2020/12/22 21:32:42;;;;;;;849.23;770.20;;;;;;;;;;5095873;28;20680;-61
2020/12/22 21:35:08;;;;;;;903.00;814.17;;;;;;;;;;5090006;27;20184;-62
2020/12/22 21:37:35;;;;;;;895.90;807.53;;;;;;;;;;5095394;27;20655;-62
2020/12/22 21:40:02;;;;;;;790.83;718.90;;;;;;;;;;5098096;28;20186;-61
2020/12/22 21:42:31;;;;;;;928.83;829.57;;;;;;;;;;5095028;28;20269;-62
2020/12/22 21:44:57;;;;;;;936.13;846.40;;;;;;;;;;5095163;28;20200;-63
2020/12/22 21:47:24;;;;;;;821.37;745.87;;;;;;;;;;5095229;28;20278;-61
2020/12/22 21:49:51;;;;;;;809.43;737.00;;;;;;;;;;5097666;28;20516;-61
2020/12/22 21:52:17;;;;;;;862.53;774.13;;;;;;;;;;5095200;28;20208;-62
2020/12/22 21:54:44;;;;;;;929.17;829.40;;;;;;;;;;5096510;28;20655;-61
2020/12/22 21:57:10;;;;;;;892.57;809.47;;;;;;;;;;5090106;28;20247;-63
2020/12/22 21:59:37;;;;;;;742.60;676.23;;;;;;;;;;5094158;28;20188;-62
2020/12/22 22:02:03;;;;;;;934.60;834.50;;;;;;;;;;5096185;28;20252;-62
2020/12/22 22:04:30;;;;;;;915.10;822.80;;;;;;;;;;5094284;28;20193;-62
2020/12/22 22:06:56;;;;;;;831.60;755.03;;;;;;;;;;5096172;28;20192;-62
2020/12/22 22:09:23;;;;;;;659.40;604.83;;;;;;;;;;5095743;28;20205;-63
2020/12/22 22:11:50;;;;;;;873.47;792.07;;;;;;;;;;5096303;28;20391;-63
2020/12/22 22:14:16;;;;;;;661.53;608.87;;;;;;;;;;5076432;28;20232;-63
2020/12/22 22:16:43;;;;;;;901.10;812.97;;;;;;;;;;5099424;27;20676;-63
2020/12/22 22:19:10;;;;;;;882.63;807.90;;;;;;;;;;5099994;28;20574;-64
2020/12/22 22:21:37;;;;;;;892.07;810.73;;;;;;;;;;5097634;27;20236;-64
2020/12/22 22:24:04;;;;;;;714.27;658.90;;;;;;;;;;5102243;27;20616;-63
2020/12/22 22:26:30;;;;;;;770.43;709.27;;;;;;;;;;5097677;28;20206;-60
2020/12/22 22:28:57;;;;;;;802.07;736.30;;;;;;;;;;5098862;28;20565;-60
2020/12/22 22:31:26;;;;;;;801.17;742.57;;;;;;;;;;5100048;28;20269;-62
2020/12/22 22:33:53;;;;;;;654.63;608.53;;;;;;;;;;5097448;27;20228;-64
2020/12/22 22:36:19;;;;;;;756.77;702.00;;;;;;;;;;5104989;27;20185;-64
2020/12/22 22:38:46;;;;;;;873.13;793.50;;;;;;;;;;5096691;28;20206;-62
2020/12/22 22:41:13;;;;;;;740.07;679.27;;;;;;;;;;5097338;28;20194;-62
2020/12/22 22:43:40;;;;;;;844.47;776.87;;;;;;;;;;5093825;28;20183;-62
2020/12/22 22:46:13;;;;;;;834.23;763.43;;;;;;;;;;5096147;28;20288;-63
2020/12/22 22:48:39;;;;;;;762.77;699.97;;;;;;;;;;5097037;27;20198;-62
2020/12/22 22:51:06;;;;;;;800.83;734.53;;;;;;;;;;5096489;28;20516;-62
2020/12/22 22:53:32;;;;;;;750.03;691.10;;;;;;;;;;5095689;28;20236;-62
2020/12/22 22:55:59;;;;;;;887.77;818.40;;;;;;;;;;5098705;27;20575;-62
2020/12/22 22:58:25;;;;;;;734.17;677.40;;;;;;;;;;5100112;28;20186;-63
2020/12/22 23:00:52;;;;;;;736.10;678.60;;;;;;;;;;5094385;28;20193;-63
2020/12/22 23:03:19;;;;;;;726.00;670.20;;;;;;;;;;5098895;27;20196;-62
2020/12/22 23:05:46;;;;;;;711.47;653.33;;;;;;;;;;5094161;28;20276;-62
2020/12/22 23:08:13;;;;;;;721.33;667.57;;;;;;;;;;5092046;28;21939;-62
2020/12/22 23:10:40;;;;;;;879.97;803.03;;;;;;;;;;5097510;28;20192;-63
2020/12/22 23:13:06;;;;;;;778.07;715.63;;;;;;;;;;5100389;28;20221;-63
2020/12/22 23:15:33;;;;;;;697.37;642.60;;;;;;;;;;5101432;28;20278;-64
2020/12/22 23:17:59;;;;;;;747.37;685.57;;;;;;;;;;5102087;28;20640;-64
2020/12/22 23:20:26;;;;;;;607.57;563.07;;;;;;;;;;5102947;28;20193;-62
2020/12/22 23:22:52;;;;;;;695.73;639.90;;;;;;;;;;5101717;28;20182;-62
2020/12/22 23:25:19;;;;;;;618.97;574.67;;;;;;;;;;5101688;28;20227;-61
2020/12/22 23:27:47;;;;;;;706.53;649.17;;;;;;;;;;5101611;27;20855;-61
2020/12/22 23:30:14;;;;;;;661.53;608.97;;;;;;;;;;5101781;28;20176;-64
2020/12/22 23:32:40;;;;;;;726.10;670.60;;;;;;;;;;5101918;28;20225;-62
2020/12/22 23:35:07;;;;;;;568.90;528.93;;;;;;;;;;5083800;28;20212;-61
2020/12/22 23:37:33;;;;;;;571.37;529.10;;;;;;;;;;5100241;28;20178;-62
2020/12/22 23:40:00;;;;;;;678.30;625.60;;;;;;;;;;5101132;28;20174;-61
2020/12/22 23:42:26;;;;;;;672.00;620.20;;;;;;;;;;5101720;28;20173;-63
2020/12/22 23:44:53;;;;;;;620.40;575.57;;;;;;;;;;5101582;28;20260;-62
2020/12/22 23:47:19;;;;;;;722.73;664.40;;;;;;;;;;5101913;28;20185;-62
2020/12/22 23:49:46;;;;;;;655.90;605.37;;;;;;;;;;5101516;28;20185;-61
2020/12/22 23:52:12;;;;;;;666.20;615.27;;;;;;;;;;5100595;28;20636;-64
2020/12/22 23:54:39;;;;;;;633.73;586.77;;;;;;;;;;5101579;28;20178;-62
2020/12/22 23:57:08;;;;;;;675.40;623.63;;;;;;;;;;5101679;28;20181;-63
2020/12/22 23:59:34;;;;;;;623.97;576.87;;;;;;;;;;5101937;28;20579;-62
